Time;durP1;ratioP1;P1;durP2;ratioP2;P2;SDS_P1;SDS_P2;PMS_P1;PMS_P2;Temp;Humidity;BMP_temperature;BMP_pressure;BME280_temperature;BME280_humidity;BME280_pressure;Samples;Min_cycle;Max_cycle;Signal;HPM_P1;HPM_P2
2023/04/22 00:02:25;;;;;;;6.43;4.00;;;;;;;;;;4967268;28;20076;-77
2023/04/22 00:04:51;;;;;;;9.73;6.55;;;;;;;;;;4966711;28;20121;-77
2023/04/22 00:07:16;;;;;;;5.70;4.00;;;;;;;;;;4963308;28;20901;-77
2023/04/22 00:09:42;;;;;;;6.68;4.63;;;;;;;;;;4961021;28;20027;-77
2023/04/22 00:12:08;;;;;;;5.88;4.45;;;;;;;;;;4966560;28;20042;-76
2023/04/22 00:14:34;;;;;;;10.27;6.70;;;;;;;;;;4966268;28;20034;-77
2023/04/22 00:16:59;;;;;;;4.03;3.60;;;;;;;;;;4967631;28;20503;-77
2023/04/22 00:19:25;;;;;;;4.32;3.30;;;;;;;;;;4960632;28;20027;-77
2023/04/22 00:21:50;;;;;;;7.68;5.18;;;;;;;;;;4964898;28;20084;-77
2023/04/22 00:24:15;;;;;;;9.70;6.47;;;;;;;;;;4966478;28;20061;-77
2023/04/22 00:26:41;;;;;;;8.75;5.32;;;;;;;;;;4967546;28;20026;-76
2023/04/22 00:29:06;;;;;;;5.35;3.70;;;;;;;;;;4966021;28;20031;-76
2023/04/22 00:31:32;;;;;;;6.15;5.00;;;;;;;;;;4966070;28;20085;-77
2023/04/22 00:33:57;;;;;;;8.27;6.53;;;;;;;;;;4966107;28;21273;-76
2023/04/22 00:36:22;;;;;;;12.02;7.00;;;;;;;;;;4980539;28;20097;-77
2023/04/22 00:38:52;;;;;;;6.38;4.28;;;;;;;;;;4957972;28;20089;-77
2023/04/22 00:41:17;;;;;;;11.27;6.90;;;;;;;;;;4964968;28;20526;-77
2023/04/22 00:43:43;;;;;;;5.18;4.00;;;;;;;;;;4966932;28;20157;-76
2023/04/22 00:46:09;;;;;;;10.43;6.93;;;;;;;;;;4968148;28;20038;-77
2023/04/22 00:48:37;;;;;;;5.35;4.03;;;;;;;;;;4961298;28;20027;-76
2023/04/22 00:51:04;;;;;;;6.68;4.72;;;;;;;;;;4966448;28;20034;-77
2023/04/22 00:53:29;;;;;;;7.30;4.60;;;;;;;;;;4965607;28;20030;-76
2023/04/22 00:55:55;;;;;;;10.60;7.40;;;;;;;;;;4965608;28;20413;-77
2023/04/22 00:58:21;;;;;;;12.25;7.65;;;;;;;;;;4959625;28;20037;-76
2023/04/22 01:00:47;;;;;;;10.50;6.68;;;;;;;;;;4969058;28;20031;-76
2023/04/22 01:03:13;;;;;;;9.25;6.68;;;;;;;;;;4965398;28;20034;-76
2023/04/22 01:05:40;;;;;;;9.20;5.78;;;;;;;;;;4963026;28;20101;-76
2023/04/22 01:08:05;;;;;;;9.02;4.90;;;;;;;;;;4959668;28;20693;-76
2023/04/22 01:10:31;;;;;;;9.90;6.80;;;;;;;;;;4967624;28;20027;-76
2023/04/22 01:12:56;;;;;;;12.85;7.35;;;;;;;;;;4969910;28;20026;-77
2023/04/22 01:15:22;;;;;;;7.63;6.35;;;;;;;;;;4972377;28;20053;-76
2023/04/22 01:17:47;;;;;;;4.70;3.92;;;;;;;;;;4964484;28;20099;-76
2023/04/22 01:20:13;;;;;;;6.72;4.50;;;;;;;;;;4969065;28;20034;-76
2023/04/22 01:22:44;;;;;;;11.07;6.82;;;;;;;;;;4971583;28;20117;-76
2023/04/22 01:25:10;;;;;;;6.15;3.97;;;;;;;;;;4971094;28;20034;-75
2023/04/22 01:27:36;;;;;;;12.35;6.93;;;;;;;;;;4962765;28;20033;-76
2023/04/22 01:30:03;;;;;;;10.32;7.20;;;;;;;;;;4971603;28;20110;-75
2023/04/22 01:32:29;;;;;;;11.85;7.13;;;;;;;;;;4985615;28;20558;-76
2023/04/22 01:34:55;;;;;;;11.18;6.50;;;;;;;;;;4968989;28;20086;-76
2023/04/22 01:37:21;;;;;;;5.15;4.15;;;;;;;;;;4964633;28;20039;-76
2023/04/22 01:39:47;;;;;;;8.25;6.63;;;;;;;;;;4965687;28;20806;-76
2023/04/22 01:42:13;;;;;;;7.00;5.07;;;;;;;;;;4971916;28;20102;-76
2023/04/22 01:44:38;;;;;;;7.35;5.72;;;;;;;;;;4969681;28;20086;-76
2023/04/22 01:47:04;;;;;;;5.22;3.90;;;;;;;;;;4969698;28;20073;-76
2023/04/22 01:49:29;;;;;;;4.82;3.92;;;;;;;;;;4978799;28;20432;-75
2023/04/22 01:51:56;;;;;;;5.88;4.65;;;;;;;;;;4969186;28;20029;-76
2023/04/22 01:54:22;;;;;;;9.25;5.60;;;;;;;;;;4970388;28;20034;-76
2023/04/22 01:56:52;;;;;;;5.60;4.47;;;;;;;;;;4967936;28;20022;-76
2023/04/22 01:59:19;;;;;;;5.57;4.03;;;;;;;;;;4961599;28;20019;-76
2023/04/22 02:01:44;;;;;;;3.88;3.47;;;;;;;;;;4968675;28;20034;-75
2023/04/22 02:04:10;;;;;;;7.75;6.28;;;;;;;;;;4969020;28;20641;-76
2023/04/22 02:06:35;;;;;;;7.60;5.30;;;;;;;;;;4969206;28;20018;-75
2023/04/22 02:09:01;;;;;;;4.70;3.83;;;;;;;;;;4962095;28;20029;-76
2023/04/22 02:11:26;;;;;;;5.03;4.13;;;;;;;;;;4968125;28;20464;-76
2023/04/22 02:13:51;;;;;;;4.80;3.83;;;;;;;;;;4968831;28;20031;-76
2023/04/22 02:16:17;;;;;;;7.78;6.15;;;;;;;;;;4965849;28;20056;-76
2023/04/22 02:18:42;;;;;;;8.18;5.93;;;;;;;;;;4961337;28;20026;-76
2023/04/22 02:21:08;;;;;;;9.00;6.15;;;;;;;;;;4967391;28;20021;-76
2023/04/22 02:23:34;;;;;;;10.98;6.00;;;;;;;;;;4968923;28;20130;-76
2023/04/22 02:26:00;;;;;;;10.32;6.20;;;;;;;;;;4972182;28;20023;-77
2023/04/22 02:28:25;;;;;;;6.82;5.88;;;;;;;;;;4962676;28;20027;-76
2023/04/22 02:30:51;;;;;;;5.43;4.55;;;;;;;;;;4970738;28;20037;-76
2023/04/22 02:33:16;;;;;;;8.70;6.13;;;;;;;;;;4967389;28;20875;-76
2023/04/22 02:35:41;;;;;;;7.35;4.75;;;;;;;;;;4967864;28;20050;-77
2023/04/22 02:38:07;;;;;;;5.95;4.30;;;;;;;;;;4961221;28;20093;-76
2023/04/22 02:40:32;;;;;;;6.30;4.10;;;;;;;;;;4968126;28;20027;-76
2023/04/22 02:42:58;;;;;;;4.97;3.58;;;;;;;;;;4970270;28;20057;-77
2023/04/22 02:45:23;;;;;;;8.18;4.72;;;;;;;;;;4968381;28;20019;-77
2023/04/22 02:47:48;;;;;;;5.60;4.93;;;;;;;;;;4961538;28;20468;-77
2023/04/22 02:50:14;;;;;;;7.40;5.88;;;;;;;;;;4967267;28;20019;-77
2023/04/22 02:52:39;;;;;;;9.13;6.32;;;;;;;;;;4969519;28;20034;-78
2023/04/22 02:55:05;;;;;;;3.80;3.35;;;;;;;;;;4972909;28;20022;-78
2023/04/22 02:57:31;;;;;;;4.63;3.30;;;;;;;;;;4965175;28;20027;-76
2023/04/22 02:59:56;;;;;;;11.00;6.80;;;;;;;;;;4969779;28;20031;-77
2023/04/22 03:02:22;;;;;;;8.40;4.50;;;;;;;;;;4968324;28;20030;-76
2023/04/22 03:04:47;;;;;;;9.25;6.70;;;;;;;;;;4966872;28;20061;-76
2023/04/22 03:07:13;;;;;;;6.85;4.65;;;;;;;;;;4978626;28;20110;-76
2023/04/22 03:09:38;;;;;;;6.28;4.25;;;;;;;;;;4967931;28;20053;-77
2023/04/22 03:12:04;;;;;;;5.30;3.60;;;;;;;;;;4969276;28;20050;-77
2023/04/22 03:14:29;;;;;;;9.13;6.40;;;;;;;;;;4965897;28;20022;-77
2023/04/22 03:16:55;;;;;;;5.20;4.22;;;;;;;;;;4965947;28;20019;-77
2023/04/22 03:19:20;;;;;;;9.15;4.97;;;;;;;;;;4977962;28;20019;-76
2023/04/22 03:21:46;;;;;;;5.00;3.75;;;;;;;;;;4965902;28;20031;-77
2023/04/22 03:24:11;;;;;;;4.28;3.55;;;;;;;;;;4967954;28;20050;-76
2023/04/22 03:26:36;;;;;;;12.20;7.30;;;;;;;;;;4970258;28;20019;-77
2023/04/22 03:29:02;;;;;;;13.35;7.70;;;;;;;;;;4960365;28;20497;-76
2023/04/22 03:31:28;;;;;;;7.82;5.30;;;;;;;;;;4966600;28;20026;-76
2023/04/22 03:33:53;;;;;;;5.10;4.13;;;;;;;;;;4967881;28;20018;-76
2023/04/22 03:36:18;;;;;;;9.63;6.80;;;;;;;;;;4970162;28;20031;-76
2023/04/22 03:38:44;;;;;;;9.85;7.20;;;;;;;;;;4961782;28;20114;-76
2023/04/22 03:41:09;;;;;;;5.53;4.00;;;;;;;;;;4965961;28;20514;-76
2023/04/22 03:43:35;;;;;;;10.70;5.88;;;;;;;;;;4960794;28;20030;-76
2023/04/22 03:46:00;;;;;;;8.82;6.28;;;;;;;;;;4963640;28;20395;-76
2023/04/22 03:48:27;;;;;;;10.10;5.85;;;;;;;;;;4960237;28;20254;-77
2023/04/22 03:50:53;;;;;;;9.50;6.25;;;;;;;;;;4965381;28;20061;-77
2023/04/22 03:53:18;;;;;;;6.28;4.35;;;;;;;;;;4967278;28;20523;-76
2023/04/22 03:55:44;;;;;;;6.05;3.30;;;;;;;;;;4965884;28;20478;-77
2023/04/22 03:58:09;;;;;;;4.75;3.67;;;;;;;;;;4960260;28;20127;-77
2023/04/22 04:00:35;;;;;;;4.88;4.28;;;;;;;;;;4968016;28;20037;-77
2023/04/22 04:03:00;;;;;;;6.63;5.32;;;;;;;;;;4969794;28;20543;-76
2023/04/22 04:05:25;;;;;;;3.92;3.53;;;;;;;;;;4965350;28;20090;-77
2023/04/22 04:07:51;;;;;;;4.30;3.60;;;;;;;;;;4955027;28;20146;-77
2023/04/22 04:10:16;;;;;;;3.55;3.22;;;;;;;;;;4965694;28;20019;-77
2023/04/22 04:12:42;;;;;;;6.82;4.68;;;;;;;;;;4981354;28;20519;-76
2023/04/22 04:15:07;;;;;;;4.45;3.40;;;;;;;;;;4964653;28;20034;-76
2023/04/22 04:17:33;;;;;;;4.88;3.92;;;;;;;;;;4976619;28;20566;-76
2023/04/22 04:19:58;;;;;;;5.80;3.53;;;;;;;;;;4966107;28;20452;-77
2023/04/22 04:22:24;;;;;;;7.75;5.70;;;;;;;;;;4971536;28;20026;-77
2023/04/22 04:24:49;;;;;;;7.47;5.07;;;;;;;;;;4965440;28;20539;-76
2023/04/22 04:27:15;;;;;;;7.68;5.30;;;;;;;;;;4962023;28;20026;-77
2023/04/22 04:29:40;;;;;;;6.03;4.72;;;;;;;;;;4963696;28;20070;-76
2023/04/22 04:32:07;;;;;;;10.32;6.82;;;;;;;;;;4967017;28;20722;-77
2023/04/22 04:34:33;;;;;;;9.30;6.70;;;;;;;;;;4968413;28;20042;-77
2023/04/22 04:36:59;;;;;;;7.85;5.85;;;;;;;;;;4966441;28;20046;-76
2023/04/22 04:39:25;;;;;;;9.00;6.63;;;;;;;;;;4960068;28;20033;-77
2023/04/22 04:41:54;;;;;;;10.27;6.97;;;;;;;;;;4980771;28;20127;-77
2023/04/22 04:44:20;;;;;;;8.38;6.00;;;;;;;;;;4967124;28;20030;-77
2023/04/22 04:46:46;;;;;;;9.13;7.15;;;;;;;;;;4976454;28;20365;-76
2023/04/22 04:49:12;;;;;;;9.43;6.78;;;;;;;;;;4966531;28;20049;-76
2023/04/22 04:51:37;;;;;;;7.90;6.35;;;;;;;;;;4971686;28;20027;-78
2023/04/22 04:54:03;;;;;;;9.68;6.40;;;;;;;;;;4968347;28;20022;-77
2023/04/22 04:56:29;;;;;;;13.27;6.95;;;;;;;;;;4969964;28;20538;-78
2023/04/22 04:58:55;;;;;;;10.45;7.03;;;;;;;;;;4962747;28;20031;-77
2023/04/22 05:01:20;;;;;;;10.18;7.10;;;;;;;;;;4967087;28;20523;-78
2023/04/22 05:03:46;;;;;;;9.68;6.18;;;;;;;;;;4970244;28;20042;-77
2023/04/22 05:06:11;;;;;;;9.57;6.50;;;;;;;;;;4966712;28;20019;-78
2023/04/22 05:08:37;;;;;;;8.10;6.60;;;;;;;;;;4962028;28;20022;-78
2023/04/22 05:11:02;;;;;;;10.07;6.50;;;;;;;;;;4968699;28;20130;-79
2023/04/22 05:13:27;;;;;;;13.20;7.20;;;;;;;;;;4969756;28;20050;-78
2023/04/22 05:15:53;;;;;;;11.68;7.05;;;;;;;;;;4967746;28;20069;-78
2023/04/22 05:18:18;;;;;;;11.48;6.70;;;;;;;;;;4963643;28;20034;-78
2023/04/22 05:20:44;;;;;;;14.40;7.45;;;;;;;;;;4965724;28;20031;-78
2023/04/22 05:23:09;;;;;;;13.88;7.45;;;;;;;;;;4961057;28;20573;-78
2023/04/22 05:25:35;;;;;;;11.63;7.35;;;;;;;;;;4984037;28;20027;-78
2023/04/22 05:28:00;;;;;;;9.43;7.40;;;;;;;;;;4964989;28;20042;-78
2023/04/22 05:30:25;;;;;;;11.57;7.60;;;;;;;;;;4970457;28;20038;-79
2023/04/22 05:32:51;;;;;;;10.23;7.13;;;;;;;;;;4969639;28;20454;-77
2023/04/22 05:35:16;;;;;;;10.57;7.50;;;;;;;;;;4983007;28;20038;-77
2023/04/22 05:37:42;;;;;;;10.90;7.28;;;;;;;;;;4964464;28;20314;-78
2023/04/22 05:40:08;;;;;;;10.93;7.00;;;;;;;;;;4984452;28;20030;-79
2023/04/22 05:42:33;;;;;;;11.02;7.25;;;;;;;;;;4985287;28;20069;-78
2023/04/22 05:44:59;;;;;;;9.18;6.97;;;;;;;;;;4971149;28;20030;-78
2023/04/22 05:47:24;;;;;;;11.07;7.35;;;;;;;;;;4971524;28;20581;-79
2023/04/22 05:49:50;;;;;;;9.75;7.38;;;;;;;;;;4970626;28;20030;-78
2023/04/22 05:52:16;;;;;;;13.55;7.47;;;;;;;;;;4971729;28;20030;-79
2023/04/22 05:54:42;;;;;;;11.65;7.60;;;;;;;;;;4983948;28;20019;-78
2023/04/22 05:57:07;;;;;;;11.30;7.40;;;;;;;;;;4967583;28;20027;-76
2023/04/22 05:59:32;;;;;;;11.48;7.75;;;;;;;;;;4969871;28;20364;-77
2023/04/22 06:01:58;;;;;;;10.73;8.07;;;;;;;;;;4969049;28;20033;-76
2023/04/22 06:04:23;;;;;;;11.48;7.53;;;;;;;;;;4988965;28;20054;-77
2023/04/22 06:06:52;;;;;;;13.38;7.40;;;;;;;;;;4973643;28;20554;-76
2023/04/22 06:09:18;;;;;;;9.73;7.68;;;;;;;;;;4970831;28;20412;-76
2023/04/22 06:11:43;;;;;;;9.48;7.95;;;;;;;;;;4960829;28;20110;-77
2023/04/22 06:14:08;;;;;;;11.73;8.43;;;;;;;;;;4968502;28;20026;-77
2023/04/22 06:16:34;;;;;;;14.25;8.80;;;;;;;;;;4968944;28;20033;-77
2023/04/22 06:18:59;;;;;;;13.73;8.63;;;;;;;;;;4968668;28;20364;-76
2023/04/22 06:21:25;;;;;;;8.05;6.50;;;;;;;;;;4973399;28;20019;-76
2023/04/22 06:23:51;;;;;;;10.63;7.40;;;;;;;;;;4968195;28;20023;-77
2023/04/22 06:26:16;;;;;;;9.55;6.93;;;;;;;;;;4983480;28;20105;-77
2023/04/22 06:28:41;;;;;;;13.13;8.77;;;;;;;;;;4970688;28;20031;-77
2023/04/22 06:31:07;;;;;;;10.55;7.85;;;;;;;;;;4970127;28;20026;-79
2023/04/22 06:33:32;;;;;;;10.55;8.05;;;;;;;;;;4976337;28;20023;-78
2023/04/22 06:35:58;;;;;;;11.75;7.97;;;;;;;;;;4973189;28;20129;-77
2023/04/22 06:38:23;;;;;;;18.13;9.18;;;;;;;;;;4970543;28;20022;-77
2023/04/22 06:40:48;;;;;;;10.48;8.02;;;;;;;;;;4970930;28;20483;-77
2023/04/22 06:43:14;;;;;;;10.70;8.63;;;;;;;;;;4972527;28;20027;-79
2023/04/22 06:45:39;;;;;;;11.18;8.25;;;;;;;;;;4995535;28;20060;-77
2023/04/22 06:48:05;;;;;;;11.90;8.13;;;;;;;;;;4977522;28;20031;-76
2023/04/22 06:50:30;;;;;;;13.20;9.05;;;;;;;;;;4993762;28;20019;-76
2023/04/22 06:52:55;;;;;;;12.77;8.57;;;;;;;;;;4976900;28;20025;-77
2023/04/22 06:55:21;;;;;;;13.88;7.97;;;;;;;;;;4977047;28;20029;-77
2023/04/22 06:57:46;;;;;;;11.40;8.32;;;;;;;;;;4977508;28;20019;-77
2023/04/22 07:00:12;;;;;;;11.48;8.07;;;;;;;;;;4983385;28;20171;-77
2023/04/22 07:02:37;;;;;;;10.27;7.75;;;;;;;;;;4978081;28;20031;-77
2023/04/22 07:05:03;;;;;;;11.73;8.18;;;;;;;;;;4976296;28;20096;-77
2023/04/22 07:07:28;;;;;;;9.88;7.35;;;;;;;;;;4976545;28;20023;-76
2023/04/22 07:09:54;;;;;;;8.45;7.53;;;;;;;;;;4984098;28;20038;-76
2023/04/22 07:12:19;;;;;;;7.95;7.00;;;;;;;;;;4980263;28;20046;-78
2023/04/22 07:14:45;;;;;;;9.98;7.15;;;;;;;;;;4972691;28;20022;-78
2023/04/22 07:17:11;;;;;;;8.02;7.20;;;;;;;;;;4975827;28;20093;-76
2023/04/22 07:19:37;;;;;;;10.73;7.00;;;;;;;;;;4972945;28;20037;-76
2023/04/22 07:22:05;;;;;;;11.25;7.97;;;;;;;;;;4982719;28;20030;-76
2023/04/22 07:24:30;;;;;;;10.65;7.75;;;;;;;;;;4968311;28;20126;-76
2023/04/22 07:26:56;;;;;;;11.30;7.82;;;;;;;;;;4967594;28;20539;-76
2023/04/22 07:29:21;;;;;;;10.18;6.80;;;;;;;;;;4968954;28;20498;-77
2023/04/22 07:31:46;;;;;;;8.35;7.20;;;;;;;;;;4969458;28;20030;-77
2023/04/22 07:34:13;;;;;;;11.27;7.20;;;;;;;;;;4968788;28;20503;-77
2023/04/22 07:36:38;;;;;;;9.65;7.28;;;;;;;;;;4964305;28;20046;-77
2023/04/22 07:39:04;;;;;;;10.02;6.85;;;;;;;;;;4969409;28;20061;-76
2023/04/22 07:41:29;;;;;;;10.27;7.43;;;;;;;;;;4972767;28;20386;-77
2023/04/22 07:43:54;;;;;;;10.48;6.70;;;;;;;;;;4969042;28;20037;-76
2023/04/22 07:46:20;;;;;;;9.43;6.88;;;;;;;;;;4969875;28;20462;-76
2023/04/22 07:48:45;;;;;;;9.43;6.60;;;;;;;;;;4968863;28;20018;-77
2023/04/22 07:54:33;;;;;;;9.15;6.22;;;;;;;;;;4966507;28;20455;-76
2023/04/22 07:57:00;;;;;;;9.00;6.50;;;;;;;;;;4968763;28;20467;-77
2023/04/22 07:59:25;;;;;;;12.13;6.97;;;;;;;;;;4969223;28;20019;-77
2023/04/22 08:01:51;;;;;;;11.10;6.55;;;;;;;;;;4974124;28;20076;-76
2023/04/22 08:04:16;;;;;;;7.68;6.22;;;;;;;;;;4972824;28;20022;-77
2023/04/22 08:06:42;;;;;;;9.15;6.35;;;;;;;;;;4972057;28;20035;-77
2023/04/22 08:09:07;;;;;;;13.15;6.90;;;;;;;;;;4970602;28;20022;-76
2023/04/22 08:11:32;;;;;;;11.25;6.80;;;;;;;;;;4967998;28;20045;-76
2023/04/22 08:13:58;;;;;;;10.98;6.35;;;;;;;;;;4973617;28;20030;-75
2023/04/22 08:16:23;;;;;;;12.57;7.40;;;;;;;;;;4970652;28;20466;-78
2023/04/22 08:18:50;;;;;;;11.48;6.60;;;;;;;;;;4968032;28;20038;-78
2023/04/22 08:21:16;;;;;;;8.48;6.20;;;;;;;;;;4967656;28;20029;-77
2023/04/22 08:23:41;;;;;;;10.50;7.00;;;;;;;;;;4958678;28;20035;-78
2023/04/22 08:26:07;;;;;;;10.73;7.18;;;;;;;;;;4970738;28;20030;-77
2023/04/22 08:28:34;;;;;;;10.60;6.93;;;;;;;;;;4970258;28;20507;-76
2023/04/22 08:30:59;;;;;;;9.93;7.05;;;;;;;;;;4972545;28;20030;-77
2023/04/22 08:33:24;;;;;;;9.60;7.07;;;;;;;;;;4965266;28;20522;-76
2023/04/22 08:35:50;;;;;;;8.25;6.13;;;;;;;;;;4970310;28;20466;-76
2023/04/22 08:38:15;;;;;;;8.20;6.45;;;;;;;;;;4970297;28;20022;-76
2023/04/22 08:40:41;;;;;;;8.13;6.32;;;;;;;;;;4969163;28;20027;-77
2023/04/22 08:43:07;;;;;;;9.02;6.10;;;;;;;;;;4962095;28;20468;-77
2023/04/22 08:45:33;;;;;;;8.95;6.18;;;;;;;;;;4970665;28;20483;-77
2023/04/22 08:47:59;;;;;;;8.68;6.47;;;;;;;;;;4984848;28;20045;-76
2023/04/22 08:50:25;;;;;;;10.60;6.20;;;;;;;;;;4965671;28;20484;-76
2023/04/22 08:52:50;;;;;;;11.38;5.40;;;;;;;;;;4963868;28;20038;-77
2023/04/22 08:55:16;;;;;;;7.88;5.68;;;;;;;;;;4981132;28;20042;-77
2023/04/22 08:57:42;;;;;;;8.55;5.47;;;;;;;;;;4967499;28;20502;-76
2023/04/22 09:00:08;;;;;;;5.80;4.63;;;;;;;;;;4965093;28;20037;-77
2023/04/22 09:02:36;;;;;;;9.68;5.35;;;;;;;;;;4964846;28;20027;-77
2023/04/22 09:05:04;;;;;;;10.68;5.25;;;;;;;;;;4959684;28;20038;-78
2023/04/22 09:07:31;;;;;;;9.68;5.20;;;;;;;;;;4967200;28;20029;-77
2023/04/22 09:09:57;;;;;;;9.40;5.60;;;;;;;;;;4966436;28;20035;-77
2023/04/22 09:12:24;;;;;;;6.22;4.95;;;;;;;;;;4961974;28;20089;-77
2023/04/22 09:14:51;;;;;;;6.38;4.68;;;;;;;;;;4966465;28;20027;-77
2023/04/22 09:17:17;;;;;;;6.32;3.55;;;;;;;;;;4969836;28;20097;-77
2023/04/22 09:19:44;;;;;;;6.13;3.85;;;;;;;;;;4970125;28;20193;-77
2023/04/22 09:22:14;;;;;;;8.50;4.80;;;;;;;;;;4964323;28;20724;-77
2023/04/22 09:24:49;;;;;;;3.78;2.80;;;;;;;;;;4964604;28;20022;-77
2023/04/22 09:27:18;;;;;;;4.63;3.45;;;;;;;;;;4967318;28;20069;-77
2023/04/22 09:29:48;;;;;;;3.63;3.28;;;;;;;;;;4968931;28;20386;-77
2023/04/22 09:32:14;;;;;;;3.47;2.65;;;;;;;;;;4980970;28;20084;-77
2023/04/22 09:34:49;;;;;;;4.75;3.25;;;;;;;;;;4969137;28;20030;-77
2023/04/22 09:37:18;;;;;;;4.05;3.00;;;;;;;;;;4968194;28;20030;-77
2023/04/22 09:39:43;;;;;;;4.57;3.05;;;;;;;;;;4967641;28;20411;-77
2023/04/22 09:42:10;;;;;;;8.10;3.38;;;;;;;;;;4966839;28;20034;-76
2023/04/22 09:44:35;;;;;;;6.25;3.30;;;;;;;;;;4969249;28;20026;-77
2023/04/22 09:47:00;;;;;;;4.80;3.30;;;;;;;;;;4963379;28;20030;-76
2023/04/22 09:49:26;;;;;;;6.25;3.30;;;;;;;;;;4964937;28;20034;-76
2023/04/22 09:51:58;;;;;;;4.47;3.03;;;;;;;;;;4965548;28;20673;-76
2023/04/22 09:54:23;;;;;;;4.55;3.50;;;;;;;;;;4968293;28;20407;-76
2023/04/22 09:56:50;;;;;;;4.68;3.22;;;;;;;;;;4968611;28;20025;-77
2023/04/22 09:59:20;;;;;;;6.15;3.03;;;;;;;;;;4983305;28;20019;-77
2023/04/22 10:01:45;;;;;;;5.25;3.10;;;;;;;;;;4962446;28;20065;-75
2023/04/22 10:04:13;;;;;;;4.13;2.90;;;;;;;;;;4966983;28;20108;-77
2023/04/22 10:06:39;;;;;;;5.18;3.40;;;;;;;;;;4969307;28;20536;-77
2023/04/22 10:09:05;;;;;;;6.03;3.15;;;;;;;;;;4969078;28;20035;-77
2023/04/22 10:11:32;;;;;;;6.93;3.60;;;;;;;;;;4968020;28;20476;-77
2023/04/22 10:13:59;;;;;;;3.75;3.05;;;;;;;;;;4969152;28;20822;-77
2023/04/22 10:16:27;;;;;;;5.57;3.28;;;;;;;;;;4968021;28;20022;-77
2023/04/22 10:18:55;;;;;;;4.15;3.08;;;;;;;;;;4967660;28;20106;-77
2023/04/22 10:21:23;;;;;;;3.58;2.70;;;;;;;;;;4968992;28;20049;-77
2023/04/22 10:23:49;;;;;;;5.75;3.42;;;;;;;;;;4968384;28;20042;-77
2023/04/22 10:26:40;;;;;;;3.65;3.03;;;;;;;;;;4970429;28;20034;-77
2023/04/22 10:29:08;;;;;;;4.28;2.60;;;;;;;;;;4972638;28;20181;-77
2023/04/22 10:31:37;;;;;;;4.00;3.20;;;;;;;;;;4967322;28;20039;-77
2023/04/22 10:34:14;;;;;;;3.38;3.05;;;;;;;;;;4967230;28;20061;-77
2023/04/22 10:36:52;;;;;;;3.33;2.90;;;;;;;;;;4981692;28;20065;-76
2023/04/22 10:39:18;;;;;;;4.28;3.10;;;;;;;;;;4969044;28;20507;-78
2023/04/22 10:41:54;;;;;;;3.53;2.85;;;;;;;;;;4968380;28;20104;-78
2023/04/22 10:44:21;;;;;;;4.07;3.45;;;;;;;;;;4981853;28;20026;-78
2023/04/22 10:46:50;;;;;;;3.33;2.53;;;;;;;;;;4983430;28;20095;-78
2023/04/22 10:49:24;;;;;;;5.88;2.88;;;;;;;;;;4970375;28;20014;-77
2023/04/22 10:51:57;;;;;;;4.53;3.00;;;;;;;;;;4964921;28;20484;-77
2023/04/22 10:57:07;;;;;;;4.85;2.95;;;;;;;;;;4969913;28;20859;-78
2023/04/22 10:59:46;;;;;;;3.45;2.38;;;;;;;;;;4976314;28;20097;-77
2023/04/22 11:02:13;;;;;;;4.50;3.25;;;;;;;;;;4970566;28;20035;-78
2023/04/22 11:04:39;;;;;;;3.88;3.20;;;;;;;;;;4966242;28;20035;-78
2023/04/22 11:07:33;;;;;;;2.67;2.42;;;;;;;;;;4969228;28;20023;-77
2023/04/22 11:10:09;;;;;;;3.75;2.70;;;;;;;;;;4968997;28;20671;-78
2023/04/22 11:12:34;;;;;;;3.88;3.00;;;;;;;;;;4962174;28;20109;-77
2023/04/22 11:15:23;;;;;;;2.90;2.63;;;;;;;;;;4968562;28;20058;-77
2023/04/22 11:17:53;;;;;;;3.35;2.78;;;;;;;;;;4970083;28;20023;-78
2023/04/22 11:20:20;;;;;;;3.00;2.70;;;;;;;;;;4970111;28;20038;-77
2023/04/22 11:22:47;;;;;;;3.00;2.60;;;;;;;;;;4962777;28;20089;-77
2023/04/22 11:25:13;;;;;;;4.07;2.95;;;;;;;;;;4969995;28;20030;-77
2023/04/22 11:27:40;;;;;;;5.07;3.00;;;;;;;;;;4970601;28;20038;-78
2023/04/22 11:30:15;;;;;;;3.10;2.80;;;;;;;;;;4967133;28;20030;-77
2023/04/22 11:32:51;;;;;;;3.13;2.20;;;;;;;;;;4988496;28;20031;-78
2023/04/22 11:35:20;;;;;;;4.03;3.50;;;;;;;;;;4970326;28;20027;-78
2023/04/22 11:37:51;;;;;;;2.92;2.70;;;;;;;;;;4967406;28;20029;-78
2023/04/22 11:40:24;;;;;;;3.83;2.85;;;;;;;;;;4976982;28;20054;-79
2023/04/22 11:42:50;;;;;;;5.53;2.88;;;;;;;;;;4970346;28;20105;-78
2023/04/22 11:45:16;;;;;;;2.97;2.67;;;;;;;;;;4975759;28;20026;-78
2023/04/22 11:47:43;;;;;;;3.35;2.67;;;;;;;;;;4972458;28;20026;-79
2023/04/22 11:50:10;;;;;;;8.57;5.13;;;;;;;;;;4968634;28;20037;-78
2023/04/22 11:52:44;;;;;;;8.52;3.70;;;;;;;;;;4972727;28;20050;-77
2023/04/22 11:55:11;;;;;;;3.50;2.72;;;;;;;;;;4965949;28;20097;-77
2023/04/22 11:57:37;;;;;;;3.63;2.40;;;;;;;;;;4971429;28;20042;-78
2023/04/22 12:00:03;;;;;;;3.45;2.60;;;;;;;;;;4968832;28;20035;-78
2023/04/22 12:02:29;;;;;;;3.65;2.55;;;;;;;;;;4975909;28;20114;-78
2023/04/22 12:04:57;;;;;;;3.80;2.53;;;;;;;;;;4976209;28;20108;-77
2023/04/22 12:07:22;;;;;;;2.78;2.58;;;;;;;;;;4968580;28;20018;-77
2023/04/22 12:09:53;;;;;;;2.92;2.60;;;;;;;;;;4967836;28;20029;-77
2023/04/22 12:12:23;;;;;;;4.47;2.28;;;;;;;;;;4971448;28;20037;-78
2023/04/22 12:14:49;;;;;;;4.30;2.50;;;;;;;;;;4990207;28;20740;-78
2023/04/22 12:17:15;;;;;;;19.00;9.35;;;;;;;;;;4973368;28;20031;-77
2023/04/22 12:19:46;;;;;;;6.85;4.90;;;;;;;;;;4968684;28;20062;-77
2023/04/22 12:22:11;;;;;;;3.05;2.40;;;;;;;;;;4983466;28;20018;-78
2023/04/22 12:24:43;;;;;;;2.90;2.60;;;;;;;;;;4981950;28;20074;-77
2023/04/22 12:27:09;;;;;;;3.10;2.50;;;;;;;;;;4971786;28;20030;-78
2023/04/22 12:29:34;;;;;;;3.33;2.45;;;;;;;;;;4973258;28;20050;-78
2023/04/22 12:31:59;;;;;;;2.30;1.90;;;;;;;;;;4971129;28;20730;-77
2023/04/22 12:34:25;;;;;;;2.30;2.10;;;;;;;;;;4967686;28;20110;-78
2023/04/22 12:36:50;;;;;;;1.65;1.55;;;;;;;;;;4968176;28;20110;-77
2023/04/22 12:39:16;;;;;;;1.98;1.60;;;;;;;;;;4966583;28;20023;-77
2023/04/22 12:41:41;;;;;;;3.17;1.90;;;;;;;;;;4968379;28;20057;-77
2023/04/22 12:44:09;;;;;;;2.15;1.60;;;;;;;;;;4969469;28;20562;-77
2023/04/22 12:46:35;;;;;;;2.63;1.45;;;;;;;;;;4973554;28;20023;-77
2023/04/22 12:49:00;;;;;;;2.95;1.88;;;;;;;;;;4968177;28;20523;-78
2023/04/22 12:51:26;;;;;;;3.28;1.80;;;;;;;;;;4970873;28;20502;-77
2023/04/22 12:53:51;;;;;;;2.97;1.55;;;;;;;;;;4969212;28;20059;-77
2023/04/22 12:56:17;;;;;;;2.22;1.95;;;;;;;;;;4969905;28;20383;-78
2023/04/22 12:58:42;;;;;;;1.58;1.48;;;;;;;;;;4967879;28;20361;-77
2023/04/22 13:01:08;;;;;;;1.67;1.55;;;;;;;;;;4970432;28;20756;-78
2023/04/22 13:03:33;;;;;;;4.32;1.50;;;;;;;;;;4967463;28;20030;-77
2023/04/22 13:05:59;;;;;;;1.70;1.60;;;;;;;;;;4971410;28;20027;-78
2023/04/22 13:08:24;;;;;;;1.75;1.63;;;;;;;;;;4976097;28;20033;-77
2023/04/22 13:10:50;;;;;;;1.30;1.20;;;;;;;;;;4978488;28;20023;-77
2023/04/22 13:13:16;;;;;;;1.52;1.42;;;;;;;;;;4979030;28;20022;-77
2023/04/22 13:15:41;;;;;;;1.42;1.33;;;;;;;;;;4994050;28;20033;-77
2023/04/22 13:18:06;;;;;;;2.45;1.50;;;;;;;;;;4978501;28;20027;-76
2023/04/22 13:20:32;;;;;;;1.92;1.45;;;;;;;;;;4975271;28;20086;-76
2023/04/22 13:22:57;;;;;;;1.45;1.35;;;;;;;;;;4980968;28;20090;-77
2023/04/22 13:25:22;;;;;;;1.45;1.20;;;;;;;;;;4983616;28;20031;-76
2023/04/22 13:27:48;;;;;;;4.63;3.00;;;;;;;;;;4978108;28;20014;-77
2023/04/22 13:30:14;;;;;;;1.45;1.30;;;;;;;;;;4993876;28;20523;-76
2023/04/22 13:32:39;;;;;;;1.60;1.40;;;;;;;;;;4981343;28;20038;-78
2023/04/22 13:35:06;;;;;;;1.98;1.48;;;;;;;;;;4995761;28;20042;-77
2023/04/22 13:37:32;;;;;;;1.90;1.40;;;;;;;;;;4994100;28;20026;-77
2023/04/22 13:39:57;;;;;;;1.50;1.40;;;;;;;;;;4994784;28;20686;-77
2023/04/22 13:42:23;;;;;;;3.03;1.50;;;;;;;;;;4977949;28;20281;-77
2023/04/22 13:44:48;;;;;;;1.40;1.30;;;;;;;;;;4978029;28;20027;-78
2023/04/22 13:47:14;;;;;;;2.38;2.17;;;;;;;;;;4980184;28;20035;-76
2023/04/22 13:49:39;;;;;;;2.88;1.85;;;;;;;;;;4979365;28;20031;-77
2023/04/22 13:52:04;;;;;;;2.10;1.65;;;;;;;;;;4978589;28;20042;-76
2023/04/22 13:54:30;;;;;;;2.38;1.50;;;;;;;;;;4978979;28;20018;-77
2023/04/22 13:56:55;;;;;;;2.08;1.50;;;;;;;;;;4981501;28;20522;-77
2023/04/22 13:59:21;;;;;;;1.50;1.40;;;;;;;;;;4977705;28;20460;-77
2023/04/22 14:01:46;;;;;;;1.60;1.50;;;;;;;;;;4979602;28;20027;-77
2023/04/22 14:04:11;;;;;;;2.08;1.60;;;;;;;;;;4979861;28;20049;-76
2023/04/22 14:06:37;;;;;;;2.55;1.73;;;;;;;;;;4984929;28;20022;-77
2023/04/22 14:09:03;;;;;;;2.42;1.60;;;;;;;;;;4973337;28;20033;-76
2023/04/22 14:11:30;;;;;;;3.20;2.42;;;;;;;;;;4977951;28;20079;-77
2023/04/22 14:13:55;;;;;;;5.35;2.67;;;;;;;;;;4978098;28;20023;-76
2023/04/22 14:16:20;;;;;;;2.28;2.08;;;;;;;;;;4998174;28;20037;-77
2023/04/22 14:18:46;;;;;;;1.85;1.50;;;;;;;;;;4979011;28;20078;-78
2023/04/22 14:21:12;;;;;;;2.35;1.50;;;;;;;;;;4978116;28;20030;-77
2023/04/22 14:23:39;;;;;;;2.30;1.98;;;;;;;;;;4978383;28;20057;-77
2023/04/22 14:26:06;;;;;;;2.20;1.40;;;;;;;;;;4974861;28;20046;-77
2023/04/22 14:28:33;;;;;;;1.85;1.63;;;;;;;;;;4977652;28;20096;-77
2023/04/22 14:30:58;;;;;;;2.40;2.05;;;;;;;;;;4981720;28;20047;-77
2023/04/22 14:33:24;;;;;;;2.33;2.13;;;;;;;;;;4993002;28;20037;-77
2023/04/22 14:35:53;;;;;;;3.90;2.58;;;;;;;;;;4978641;28;20023;-78
2023/04/22 14:38:19;;;;;;;2.00;1.80;;;;;;;;;;4978765;28;20038;-76
2023/04/22 14:40:46;;;;;;;2.47;1.58;;;;;;;;;;4978450;28;20078;-76
2023/04/22 14:43:11;;;;;;;1.67;1.27;;;;;;;;;;4978083;28;20390;-76